Time;durP1;ratioP1;P1;durP2;ratioP2;P2;SDS_P1;SDS_P2;PMS_P1;PMS_P2;Temp;Humidity;BMP_temperature;BMP_pressure;BME280_temperature;BME280_humidity;BME280_pressure;Samples;Min_cycle;Max_cycle;Signal;HPM_P1;HPM_P2
2023/08/19 00:02:20;;;;;;;6.60;5.90;;;;;;;;;;5024429;28;20037;-72
2023/08/19 00:04:45;;;;;;;8.90;6.10;;;;;;;;;;5024362;28;20044;-72
2023/08/19 00:07:10;;;;;;;7.45;6.00;;;;;;;;;;5022132;28;20052;-73
2023/08/19 00:09:38;;;;;;;8.65;6.03;;;;;;;;;;5024131;28;20030;-73
2023/08/19 00:12:04;;;;;;;9.13;6.53;;;;;;;;;;5023955;28;20037;-72
2023/08/19 00:14:29;;;;;;;9.45;6.57;;;;;;;;;;5024408;28;20029;-72
2023/08/19 00:16:55;;;;;;;8.95;6.38;;;;;;;;;;5023480;28;20049;-72
2023/08/19 00:19:20;;;;;;;9.23;6.30;;;;;;;;;;5024058;28;20524;-72
2023/08/19 00:21:46;;;;;;;10.40;6.38;;;;;;;;;;5024282;28;20034;-72
2023/08/19 00:24:11;;;;;;;12.90;6.40;;;;;;;;;;5022122;28;20133;-72
2023/08/19 00:26:36;;;;;;;7.03;6.22;;;;;;;;;;5024051;28;20013;-72
2023/08/19 00:29:02;;;;;;;8.15;5.97;;;;;;;;;;5042714;28;20037;-72
2023/08/19 00:31:27;;;;;;;8.13;6.22;;;;;;;;;;5043358;28;20080;-72
2023/08/19 00:33:53;;;;;;;9.45;6.38;;;;;;;;;;5043592;28;20510;-72
2023/08/19 00:36:18;;;;;;;9.80;6.10;;;;;;;;;;5043510;28;20041;-72
2023/08/19 00:38:45;;;;;;;9.93;6.10;;;;;;;;;;5042950;28;20487;-72
2023/08/19 00:41:11;;;;;;;7.80;5.97;;;;;;;;;;5042417;28;20100;-72
2023/08/19 00:43:37;;;;;;;8.65;5.85;;;;;;;;;;5043289;28;20542;-72
2023/08/19 00:46:05;;;;;;;9.07;6.25;;;;;;;;;;5043538;28;20041;-72
2023/08/19 00:48:30;;;;;;;7.03;5.70;;;;;;;;;;5030363;28;20055;-72
2023/08/19 00:50:57;;;;;;;13.77;6.25;;;;;;;;;;5043449;28;20589;-72
2023/08/19 00:53:23;;;;;;;9.00;6.35;;;;;;;;;;5030170;28;20040;-72
2023/08/19 00:55:48;;;;;;;11.10;6.30;;;;;;;;;;5031596;28;20396;-73
2023/08/19 00:58:14;;;;;;;10.02;6.22;;;;;;;;;;5055064;28;20048;-71
2023/08/19 01:00:40;;;;;;;7.15;5.63;;;;;;;;;;5043701;28;20063;-72
2023/08/19 01:03:06;;;;;;;9.02;6.13;;;;;;;;;;5042797;28;20032;-72
2023/08/19 01:06:06;;;;;;;11.57;6.50;;;;;;;;;;5043900;28;20508;-72
2023/08/19 01:09:07;;;;;;;8.85;5.97;;;;;;;;;;5043105;28;20029;-72
2023/08/19 01:11:57;;;;;;;10.50;5.78;;;;;;;;;;5038819;28;20037;-72
2023/08/19 01:14:32;;;;;;;10.27;5.80;;;;;;;;;;5021854;28;20045;-72
2023/08/19 01:16:59;;;;;;;9.82;5.82;;;;;;;;;;5022986;28;20077;-72
2023/08/19 01:19:32;;;;;;;9.50;6.30;;;;;;;;;;5023536;28;20048;-72
2023/08/19 01:22:02;;;;;;;9.88;5.90;;;;;;;;;;5013180;28;20038;-72
2023/08/19 01:24:34;;;;;;;9.45;6.10;;;;;;;;;;5020659;28;20045;-72
2023/08/19 01:27:02;;;;;;;9.55;6.28;;;;;;;;;;5022158;28;20025;-72
2023/08/19 01:29:27;;;;;;;8.18;5.90;;;;;;;;;;5024139;28;20032;-72
2023/08/19 01:31:52;;;;;;;8.07;6.05;;;;;;;;;;5042113;28;20053;-73
2023/08/19 01:34:18;;;;;;;8.60;6.13;;;;;;;;;;5042768;28;20045;-72
2023/08/19 01:36:46;;;;;;;9.38;6.03;;;;;;;;;;5042468;28;20068;-72
2023/08/19 01:39:13;;;;;;;12.23;6.35;;;;;;;;;;5055609;28;20029;-72
2023/08/19 01:41:40;;;;;;;9.40;6.50;;;;;;;;;;5043520;28;20075;-72
2023/08/19 01:44:06;;;;;;;9.13;6.65;;;;;;;;;;5032739;28;20037;-72
2023/08/19 01:46:32;;;;;;;9.77;6.20;;;;;;;;;;5032231;28;20041;-72
2023/08/19 01:48:57;;;;;;;14.50;7.63;;;;;;;;;;5042866;28;20460;-72
2023/08/19 01:51:23;;;;;;;10.18;6.32;;;;;;;;;;5043135;28;20032;-72
2023/08/19 01:53:48;;;;;;;10.30;6.35;;;;;;;;;;5041143;28;20032;-72
2023/08/19 01:56:13;;;;;;;8.73;6.40;;;;;;;;;;5058186;28;20025;-72
2023/08/19 01:58:39;;;;;;;8.80;6.15;;;;;;;;;;5062465;28;20029;-72
2023/08/19 02:01:05;;;;;;;9.57;5.85;;;;;;;;;;5029495;28;20452;-72
2023/08/19 02:03:30;;;;;;;10.88;6.45;;;;;;;;;;5026791;28;20075;-72
2023/08/19 02:05:56;;;;;;;8.90;6.07;;;;;;;;;;5046400;28;20028;-72
2023/08/19 02:08:21;;;;;;;11.10;6.50;;;;;;;;;;5046666;28;20059;-72
2023/08/19 02:10:46;;;;;;;8.32;6.20;;;;;;;;;;5046164;28;20466;-73
2023/08/19 02:13:12;;;;;;;8.18;6.60;;;;;;;;;;5015942;28;20037;-72
2023/08/19 02:15:38;;;;;;;7.93;6.03;;;;;;;;;;5045907;28;20445;-72
2023/08/19 02:18:03;;;;;;;10.75;5.68;;;;;;;;;;5045316;28;20041;-72
2023/08/19 02:20:29;;;;;;;8.18;6.28;;;;;;;;;;5031336;28;20029;-71
2023/08/19 02:22:55;;;;;;;7.53;6.10;;;;;;;;;;5058852;28;20036;-72
2023/08/19 02:25:20;;;;;;;11.27;6.55;;;;;;;;;;5061666;28;20043;-72
2023/08/19 02:27:46;;;;;;;9.00;6.10;;;;;;;;;;5060187;28;20965;-72
2023/08/19 02:30:12;;;;;;;8.75;6.10;;;;;;;;;;5050089;28;20132;-72
2023/08/19 02:32:40;;;;;;;9.38;6.60;;;;;;;;;;5010112;28;20041;-72
2023/08/19 02:35:06;;;;;;;9.68;6.10;;;;;;;;;;5024020;28;20045;-72
2023/08/19 02:37:32;;;;;;;10.95;6.32;;;;;;;;;;5025106;28;20063;-72
2023/08/19 02:39:57;;;;;;;7.40;6.18;;;;;;;;;;4995008;28;20562;-72
2023/08/19 02:42:22;;;;;;;11.23;6.47;;;;;;;;;;5021116;28;20105;-72
2023/08/19 02:44:48;;;;;;;9.90;7.07;;;;;;;;;;5017688;28;20032;-72
2023/08/19 02:47:14;;;;;;;9.45;6.32;;;;;;;;;;5022716;28;20498;-72
2023/08/19 02:49:39;;;;;;;9.93;6.68;;;;;;;;;;5025570;28;20037;-72
2023/08/19 02:52:05;;;;;;;10.98;6.38;;;;;;;;;;5023739;28;20045;-72
2023/08/19 02:54:30;;;;;;;9.05;5.95;;;;;;;;;;5025835;28;20040;-72
2023/08/19 02:56:56;;;;;;;9.25;6.65;;;;;;;;;;5019834;28;20021;-72
2023/08/19 02:59:21;;;;;;;7.90;6.18;;;;;;;;;;5018567;28;20030;-72
2023/08/19 03:01:46;;;;;;;8.57;6.05;;;;;;;;;;5024377;28;20029;-72
2023/08/19 03:04:12;;;;;;;9.98;6.88;;;;;;;;;;5014261;28;20038;-72
2023/08/19 03:06:37;;;;;;;9.00;6.97;;;;;;;;;;5021903;28;20025;-72
2023/08/19 03:09:03;;;;;;;9.77;6.93;;;;;;;;;;5023719;28;20511;-72
2023/08/19 03:11:28;;;;;;;11.23;6.78;;;;;;;;;;5025512;28;20028;-72
2023/08/19 03:13:54;;;;;;;10.70;6.97;;;;;;;;;;5007295;28;20029;-72
2023/08/19 03:16:19;;;;;;;8.60;6.43;;;;;;;;;;5023659;28;20103;-72
2023/08/19 03:18:44;;;;;;;8.13;6.43;;;;;;;;;;5006528;28;20033;-72
2023/08/19 03:21:10;;;;;;;9.15;6.28;;;;;;;;;;5025176;28;20033;-72
2023/08/19 03:23:35;;;;;;;10.63;7.50;;;;;;;;;;5025283;28;20080;-72
2023/08/19 03:26:01;;;;;;;13.23;6.68;;;;;;;;;;5023557;28;20083;-72
2023/08/19 03:28:26;;;;;;;11.73;6.50;;;;;;;;;;5025019;28;20052;-72
2023/08/19 03:30:51;;;;;;;9.13;6.40;;;;;;;;;;5014836;28;20041;-72
2023/08/19 03:33:17;;;;;;;9.60;6.80;;;;;;;;;;5025329;28;20057;-72
2023/08/19 03:35:42;;;;;;;10.63;6.88;;;;;;;;;;5025027;28;20036;-72
2023/08/19 03:38:08;;;;;;;10.05;6.40;;;;;;;;;;5025159;28;20034;-72
2023/08/19 03:40:33;;;;;;;10.35;6.20;;;;;;;;;;5040319;28;20644;-72
2023/08/19 03:42:58;;;;;;;10.30;6.68;;;;;;;;;;5044370;28;21094;-72
2023/08/19 03:45:24;;;;;;;11.82;6.72;;;;;;;;;;5036738;28;20036;-72
2023/08/19 03:47:49;;;;;;;10.77;7.28;;;;;;;;;;5038764;28;20094;-72
2023/08/19 03:50:15;;;;;;;14.38;7.35;;;;;;;;;;5050862;28;20465;-72
2023/08/19 03:52:40;;;;;;;8.65;6.30;;;;;;;;;;5044798;28;20111;-72
2023/08/19 03:55:06;;;;;;;10.82;7.05;;;;;;;;;;5043740;28;20037;-72
2023/08/19 03:57:31;;;;;;;11.80;6.63;;;;;;;;;;5043896;28;20087;-71
2023/08/19 03:59:57;;;;;;;10.77;6.85;;;;;;;;;;5044290;28;20041;-72
2023/08/19 04:02:22;;;;;;;9.48;6.47;;;;;;;;;;5043894;28;20017;-72
2023/08/19 04:05:08;;;;;;;10.55;7.07;;;;;;;;;;5044091;28;20043;-72
2023/08/19 04:07:34;;;;;;;8.82;6.47;;;;;;;;;;5044367;28;20025;-71
2023/08/19 04:09:59;;;;;;;10.95;6.28;;;;;;;;;;5044369;28;20029;-72
2023/08/19 04:12:26;;;;;;;9.45;6.95;;;;;;;;;;5044202;28;20121;-72
2023/08/19 04:14:52;;;;;;;10.65;7.22;;;;;;;;;;5042642;28;20031;-71
2023/08/19 04:17:18;;;;;;;9.77;6.38;;;;;;;;;;5043943;28;20494;-72
2023/08/19 04:19:44;;;;;;;12.27;6.88;;;;;;;;;;5042161;28;20086;-72
2023/08/19 04:22:15;;;;;;;9.27;6.78;;;;;;;;;;5027668;28;20523;-72
2023/08/19 04:24:41;;;;;;;11.05;6.43;;;;;;;;;;5023799;28;20030;-72
2023/08/19 04:27:07;;;;;;;12.02;6.60;;;;;;;;;;5022608;28;20033;-72
2023/08/19 04:29:35;;;;;;;10.57;6.38;;;;;;;;;;5028540;28;20047;-72
2023/08/19 04:32:01;;;;;;;7.82;6.25;;;;;;;;;;5049060;28;20041;-72
2023/08/19 04:34:27;;;;;;;9.10;6.75;;;;;;;;;;5030300;28;20128;-72
2023/08/19 04:36:52;;;;;;;9.48;6.72;;;;;;;;;;5041929;28;20063;-72
2023/08/19 04:39:17;;;;;;;10.70;6.40;;;;;;;;;;5043163;28;20579;-72
2023/08/19 04:41:43;;;;;;;10.63;6.30;;;;;;;;;;5041471;28;20044;-71
2023/08/19 04:44:09;;;;;;;8.25;6.50;;;;;;;;;;5042684;28;20021;-72
2023/08/19 04:46:34;;;;;;;8.65;6.82;;;;;;;;;;5042879;28;20029;-72
2023/08/19 04:48:59;;;;;;;8.75;6.88;;;;;;;;;;5043634;28;20025;-72
2023/08/19 04:51:25;;;;;;;10.80;6.85;;;;;;;;;;5041909;28;20107;-71
2023/08/19 04:53:50;;;;;;;10.50;6.85;;;;;;;;;;5036084;28;20024;-72
2023/08/19 04:56:15;;;;;;;10.98;7.03;;;;;;;;;;5043653;28;20452;-72
2023/08/19 04:58:41;;;;;;;10.93;6.78;;;;;;;;;;5043091;28;20044;-72
2023/08/19 05:01:06;;;;;;;8.00;6.72;;;;;;;;;;5043059;28;20044;-72
2023/08/19 05:03:31;;;;;;;10.02;6.53;;;;;;;;;;5037600;28;20033;-72
2023/08/19 05:05:57;;;;;;;10.38;7.22;;;;;;;;;;5034778;28;20024;-72
2023/08/19 05:08:22;;;;;;;8.10;6.50;;;;;;;;;;5043553;28;20544;-72
2023/08/19 05:10:47;;;;;;;10.45;6.85;;;;;;;;;;5041862;28;20071;-72
2023/08/19 05:13:13;;;;;;;9.27;6.45;;;;;;;;;;5044094;28;20025;-72
2023/08/19 05:15:38;;;;;;;9.65;7.13;;;;;;;;;;5039604;28;20025;-71
2023/08/19 05:18:05;;;;;;;8.90;6.25;;;;;;;;;;5049368;28;20124;-72
2023/08/19 05:20:30;;;;;;;9.82;6.63;;;;;;;;;;5045320;28;20029;-72
2023/08/19 05:22:55;;;;;;;9.63;7.18;;;;;;;;;;5042833;28;20410;-72
2023/08/19 05:25:21;;;;;;;12.13;6.55;;;;;;;;;;5026526;28;20120;-72
2023/08/19 05:27:46;;;;;;;9.98;6.72;;;;;;;;;;5023372;28;20034;-72
2023/08/19 05:30:12;;;;;;;10.00;7.25;;;;;;;;;;5033987;28;20094;-72
2023/08/19 05:32:38;;;;;;;11.82;7.80;;;;;;;;;;5024210;28;20022;-72
2023/08/19 05:35:04;;;;;;;9.95;7.18;;;;;;;;;;5019381;28;20043;-72
2023/08/19 05:37:29;;;;;;;9.02;6.90;;;;;;;;;;5039061;28;20033;-72
2023/08/19 05:39:54;;;;;;;14.20;7.03;;;;;;;;;;5047080;28;20041;-72
2023/08/19 05:42:20;;;;;;;10.93;6.72;;;;;;;;;;5045063;28;20098;-71
2023/08/19 05:44:45;;;;;;;9.32;7.32;;;;;;;;;;5047389;28;20033;-71
2023/08/19 05:47:11;;;;;;;8.13;6.57;;;;;;;;;;5046989;28;20044;-72
2023/08/19 05:49:36;;;;;;;9.63;7.35;;;;;;;;;;5047164;28;20056;-72
2023/08/19 05:52:02;;;;;;;9.07;7.15;;;;;;;;;;5046619;28;20045;-72
2023/08/19 05:54:27;;;;;;;8.82;6.60;;;;;;;;;;5046933;28;20036;-72
2023/08/19 05:56:53;;;;;;;10.57;7.03;;;;;;;;;;5046723;28;21003;-72
2023/08/19 05:59:18;;;;;;;12.10;7.47;;;;;;;;;;5045439;28;20037;-73
2023/08/19 06:01:44;;;;;;;11.95;6.82;;;;;;;;;;5050540;28;20047;-72
2023/08/19 06:04:09;;;;;;;12.15;7.70;;;;;;;;;;5055673;28;20061;-73
2023/08/19 06:06:34;;;;;;;12.50;7.13;;;;;;;;;;5046102;28;20056;-72
2023/08/19 06:09:00;;;;;;;10.65;7.30;;;;;;;;;;5046834;28;20397;-72
2023/08/19 06:11:25;;;;;;;8.60;6.40;;;;;;;;;;5046687;28;20052;-71
2023/08/19 06:13:51;;;;;;;13.45;7.20;;;;;;;;;;5046395;28;20044;-71
2023/08/19 06:16:16;;;;;;;11.82;7.35;;;;;;;;;;5044494;28;20480;-70
2023/08/19 06:18:42;;;;;;;14.18;7.57;;;;;;;;;;5046435;28;20458;-70
2023/08/19 06:21:07;;;;;;;12.02;7.70;;;;;;;;;;5045915;28;20094;-70
2023/08/19 06:23:33;;;;;;;11.52;7.80;;;;;;;;;;5046874;28;20083;-70
2023/08/19 06:25:58;;;;;;;9.98;7.13;;;;;;;;;;5045137;28;20494;-71
2023/08/19 06:28:24;;;;;;;11.70;7.78;;;;;;;;;;5046301;28;20033;-71
2023/08/19 06:30:50;;;;;;;13.55;8.07;;;;;;;;;;5042107;28;20096;-70
2023/08/19 06:33:17;;;;;;;10.63;7.53;;;;;;;;;;5025510;28;20580;-71
2023/08/19 06:35:48;;;;;;;14.55;7.80;;;;;;;;;;5045374;28;20035;-71
2023/08/19 06:38:21;;;;;;;11.00;7.60;;;;;;;;;;5025499;28;20041;-71
2023/08/19 06:40:57;;;;;;;15.00;7.68;;;;;;;;;;5043049;28;20068;-71
2023/08/19 06:43:26;;;;;;;11.63;7.32;;;;;;;;;;5048151;28;20037;-71
2023/08/19 06:45:55;;;;;;;14.48;7.93;;;;;;;;;;5051610;28;20029;-70
2023/08/19 06:48:23;;;;;;;14.30;8.73;;;;;;;;;;5045623;28;20128;-71
2023/08/19 06:50:52;;;;;;;11.27;7.47;;;;;;;;;;5046181;28;20035;-71
2023/08/19 06:53:18;;;;;;;11.85;7.55;;;;;;;;;;5046199;28;20037;-71
2023/08/19 06:55:55;;;;;;;11.57;7.95;;;;;;;;;;5043323;28;20120;-71
2023/08/19 06:58:28;;;;;;;11.50;8.13;;;;;;;;;;5041717;28;20048;-71
2023/08/19 07:00:59;;;;;;;12.85;8.18;;;;;;;;;;5041320;28;20555;-70
2023/08/19 07:03:29;;;;;;;11.98;8.10;;;;;;;;;;5035167;28;20041;-71
2023/08/19 07:05:56;;;;;;;13.55;7.80;;;;;;;;;;5034773;28;20515;-71
2023/08/19 07:08:22;;;;;;;15.75;8.55;;;;;;;;;;5044516;28;20051;-72
2023/08/19 07:10:48;;;;;;;11.27;7.22;;;;;;;;;;5044475;28;20418;-72
2023/08/19 07:13:13;;;;;;;14.00;7.75;;;;;;;;;;5044079;28;20041;-72
2023/08/19 07:15:42;;;;;;;13.35;7.55;;;;;;;;;;5044010;28;20036;-71
2023/08/19 07:18:13;;;;;;;14.32;7.53;;;;;;;;;;5029512;28;20112;-71
2023/08/19 07:20:38;;;;;;;10.23;7.93;;;;;;;;;;5043553;28;20494;-71
2023/08/19 07:23:05;;;;;;;10.55;7.10;;;;;;;;;;5043885;28;20049;-71
2023/08/19 07:25:31;;;;;;;11.45;7.75;;;;;;;;;;5034818;28;20536;-71
2023/08/19 07:27:59;;;;;;;11.35;7.53;;;;;;;;;;5033591;28;20041;-71
2023/08/19 07:30:25;;;;;;;13.52;7.45;;;;;;;;;;5038249;28;20548;-71
2023/08/19 07:32:51;;;;;;;12.10;7.53;;;;;;;;;;5043328;28;20021;-72
2023/08/19 07:35:16;;;;;;;11.73;7.80;;;;;;;;;;5035875;28;20078;-72
2023/08/19 07:37:42;;;;;;;16.77;8.80;;;;;;;;;;5033990;28;20045;-72
2023/08/19 07:40:09;;;;;;;13.95;7.78;;;;;;;;;;5032688;28;20501;-71
2023/08/19 07:42:35;;;;;;;11.60;7.30;;;;;;;;;;5025364;28;20052;-70
2023/08/19 07:45:00;;;;;;;10.23;7.35;;;;;;;;;;5033247;28;20041;-69
2023/08/19 07:47:26;;;;;;;11.38;7.55;;;;;;;;;;5037720;28;20039;-71
2023/08/19 07:49:51;;;;;;;10.00;6.95;;;;;;;;;;5042784;28;20429;-70
2023/08/19 07:52:17;;;;;;;11.98;7.28;;;;;;;;;;5045984;28;20060;-70
2023/08/19 07:54:42;;;;;;;11.95;7.55;;;;;;;;;;5045846;28;20072;-70
2023/08/19 07:57:07;;;;;;;12.85;8.05;;;;;;;;;;5044200;28;20040;-71
2023/08/19 07:59:34;;;;;;;13.63;8.02;;;;;;;;;;5046862;28;20033;-68
2023/08/19 08:01:59;;;;;;;11.90;7.60;;;;;;;;;;5046206;28;20021;-69
2023/08/19 08:04:25;;;;;;;11.60;7.45;;;;;;;;;;5034629;28;20052;-70
2023/08/19 08:06:51;;;;;;;10.65;7.80;;;;;;;;;;5043443;28;20064;-70
2023/08/19 08:09:17;;;;;;;10.77;7.35;;;;;;;;;;5041539;28;20052;-69
2023/08/19 08:11:45;;;;;;;10.98;7.63;;;;;;;;;;5046486;28;20036;-69
2023/08/19 08:14:10;;;;;;;12.70;7.72;;;;;;;;;;5045005;28;20398;-69
2023/08/19 08:16:35;;;;;;;11.20;8.20;;;;;;;;;;5045034;28;20041;-69
2023/08/19 08:19:01;;;;;;;10.63;6.63;;;;;;;;;;5045285;28;20055;-69
2023/08/19 08:21:26;;;;;;;10.57;6.80;;;;;;;;;;5046123;28;20116;-69
2023/08/19 08:23:54;;;;;;;9.73;6.60;;;;;;;;;;5046305;28;20485;-69
2023/08/19 08:26:20;;;;;;;14.52;7.63;;;;;;;;;;5046283;28;20025;-69
2023/08/19 08:28:45;;;;;;;13.05;6.90;;;;;;;;;;5043168;28;20033;-69
2023/08/19 08:31:11;;;;;;;10.82;6.10;;;;;;;;;;5057663;28;20045;-69
2023/08/19 08:33:36;;;;;;;8.30;6.03;;;;;;;;;;5044505;28;20087;-69
2023/08/19 08:36:01;;;;;;;9.18;6.50;;;;;;;;;;5043895;28;20047;-69
2023/08/19 08:38:27;;;;;;;9.23;6.43;;;;;;;;;;5038864;28;20076;-68
2023/08/19 08:40:52;;;;;;;7.97;5.70;;;;;;;;;;5035979;28;20052;-69
2023/08/19 08:43:18;;;;;;;9.98;5.20;;;;;;;;;;5042688;28;20085;-69
2023/08/19 08:45:44;;;;;;;8.27;4.93;;;;;;;;;;5045880;28;20029;-69
2023/08/19 08:48:11;;;;;;;6.30;4.03;;;;;;;;;;5046399;28;20033;-69
2023/08/19 08:50:36;;;;;;;7.32;3.50;;;;;;;;;;5044536;28;20475;-69
2023/08/19 08:53:02;;;;;;;6.05;3.25;;;;;;;;;;5054343;28;20025;-68
2023/08/19 08:55:27;;;;;;;4.88;3.05;;;;;;;;;;5038737;28;20033;-69
2023/08/19 08:57:54;;;;;;;5.32;2.83;;;;;;;;;;5031036;28;20126;-69
2023/08/19 09:00:19;;;;;;;4.63;2.97;;;;;;;;;;5032668;28;20067;-69
2023/08/19 09:02:46;;;;;;;6.22;2.63;;;;;;;;;;5042157;28;20029;-68
2023/08/19 09:05:12;;;;;;;5.28;2.80;;;;;;;;;;5046849;28;20021;-69
2023/08/19 09:07:39;;;;;;;4.53;3.17;;;;;;;;;;5046020;28;20457;-69
2023/08/19 09:10:11;;;;;;;4.95;2.63;;;;;;;;;;5033744;28;20036;-69
2023/08/19 09:12:37;;;;;;;6.32;2.72;;;;;;;;;;5046360;28;20040;-69
2023/08/19 09:15:03;;;;;;;5.25;3.00;;;;;;;;;;5044691;28;20106;-69
2023/08/19 09:17:30;;;;;;;4.38;3.00;;;;;;;;;;5046405;28;20085;-69
2023/08/19 09:19:56;;;;;;;6.00;3.10;;;;;;;;;;5046755;28;20025;-69
2023/08/19 09:22:23;;;;;;;6.53;3.13;;;;;;;;;;5046474;28;20033;-69
2023/08/19 09:24:49;;;;;;;5.85;3.05;;;;;;;;;;5045944;28;20040;-69
2023/08/19 09:27:18;;;;;;;6.07;3.00;;;;;;;;;;5046544;28;20041;-69
2023/08/19 09:29:52;;;;;;;7.97;3.08;;;;;;;;;;5053729;28;20036;-69
2023/08/19 09:32:31;;;;;;;6.57;3.15;;;;;;;;;;5048783;28;20069;-69
2023/08/19 09:35:15;;;;;;;8.55;3.60;;;;;;;;;;5047219;28;20045;-69
2023/08/19 09:37:41;;;;;;;6.55;3.17;;;;;;;;;;5015796;28;20037;-69
2023/08/19 09:40:11;;;;;;;8.57;3.40;;;;;;;;;;5036108;28;20044;-69
2023/08/19 09:42:40;;;;;;;5.57;3.55;;;;;;;;;;5017734;28;20091;-69
2023/08/19 09:45:06;;;;;;;6.72;3.38;;;;;;;;;;5028466;28;20514;-69
2023/08/19 09:47:48;;;;;;;6.90;3.47;;;;;;;;;;5043462;28;20028;-69
2023/08/19 09:50:18;;;;;;;5.45;3.40;;;;;;;;;;5046027;28;20768;-69
2023/08/19 09:52:54;;;;;;;5.43;3.10;;;;;;;;;;5045938;28;20137;-69
2023/08/19 09:55:24;;;;;;;6.45;2.92;;;;;;;;;;5044415;28;20067;-69
2023/08/19 09:57:50;;;;;;;5.75;2.80;;;;;;;;;;5046215;28;20052;-69
2023/08/19 10:00:15;;;;;;;5.18;3.08;;;;;;;;;;5045709;28;20036;-69
2023/08/19 10:02:41;;;;;;;5.13;2.90;;;;;;;;;;5040010;28;20102;-69
2023/08/19 10:05:07;;;;;;;5.97;3.00;;;;;;;;;;5026573;28;20033;-69
2023/08/19 10:07:33;;;;;;;3.67;2.80;;;;;;;;;;5026149;28;20048;-69
2023/08/19 10:10:04;;;;;;;5.75;3.22;;;;;;;;;;5025771;28;20037;-69
2023/08/19 10:12:38;;;;;;;5.65;3.10;;;;;;;;;;5025953;28;20049;-69
2023/08/19 10:15:06;;;;;;;9.27;3.25;;;;;;;;;;5026718;28;20045;-69
2023/08/19 10:17:36;;;;;;;6.22;3.13;;;;;;;;;;5029415;28;20506;-69
2023/08/19 10:20:11;;;;;;;4.88;2.88;;;;;;;;;;5028387;28;20032;-69
2023/08/19 10:22:39;;;;;;;7.07;2.88;;;;;;;;;;5047453;28;20041;-69
2023/08/19 10:25:06;;;;;;;7.45;3.30;;;;;;;;;;5049482;28;20099;-69
2023/08/19 10:27:32;;;;;;;4.65;2.90;;;;;;;;;;5049437;28;20059;-69
2023/08/19 10:29:58;;;;;;;5.85;3.25;;;;;;;;;;5058232;28;20044;-69
2023/08/19 10:32:28;;;;;;;5.50;3.13;;;;;;;;;;5052160;28;20045;-68
2023/08/19 10:35:08;;;;;;;6.03;3.10;;;;;;;;;;5049997;28;20035;-69
2023/08/19 10:37:40;;;;;;;7.70;2.90;;;;;;;;;;5045050;28;20049;-69
2023/08/19 10:40:08;;;;;;;4.95;2.70;;;;;;;;;;5049150;28;20044;-69
2023/08/19 10:42:34;;;;;;;5.95;2.60;;;;;;;;;;5049416;28;20044;-69
2023/08/19 10:44:59;;;;;;;6.57;2.92;;;;;;;;;;5045559;28;20049;-70
2023/08/19 10:47:25;;;;;;;7.28;2.75;;;;;;;;;;5040127;28;20021;-69
2023/08/19 10:49:59;;;;;;;6.20;2.55;;;;;;;;;;5049656;28;20025;-69
2023/08/19 10:52:24;;;;;;;5.80;3.10;;;;;;;;;;5049145;28;20040;-69
2023/08/19 10:54:50;;;;;;;7.25;2.85;;;;;;;;;;5047389;28;20041;-69
2023/08/19 10:57:23;;;;;;;4.22;2.78;;;;;;;;;;5048486;28;20041;-69
2023/08/19 11:00:00;;;;;;;5.10;2.80;;;;;;;;;;5049242;28;20036;-69
2023/08/19 11:02:29;;;;;;;5.32;2.67;;;;;;;;;;5050109;28;20108;-69
2023/08/19 11:04:57;;;;;;;6.75;3.25;;;;;;;;;;5038209;28;20064;-69
2023/08/19 11:07:24;;;;;;;5.13;2.90;;;;;;;;;;5058801;28;20032;-69
2023/08/19 11:09:50;;;;;;;4.47;2.60;;;;;;;;;;5048530;28;20041;-69
2023/08/19 11:12:21;;;;;;;5.45;2.50;;;;;;;;;;5047189;28;20593;-69
2023/08/19 11:14:50;;;;;;;5.00;2.55;;;;;;;;;;5039531;28;20037;-69
2023/08/19 11:17:17;;;;;;;5.88;2.72;;;;;;;;;;5046750;28;20055;-69
2023/08/19 11:19:43;;;;;;;7.18;2.92;;;;;;;;;;5048519;28;20517;-69
2023/08/19 11:22:15;;;;;;;8.85;2.33;;;;;;;;;;5046653;28;20573;-69
2023/08/19 11:24:41;;;;;;;6.30;2.50;;;;;;;;;;5046592;28;20033;-69
2023/08/19 11:27:07;;;;;;;4.57;2.30;;;;;;;;;;5045428;28;20460;-69
2023/08/19 11:29:33;;;;;;;6.05;2.63;;;;;;;;;;5054140;28;20061;-69
2023/08/19 11:32:00;;;;;;;4.47;2.90;;;;;;;;;;5054806;28;20040;-69
2023/08/19 11:34:28;;;;;;;5.47;2.60;;;;;;;;;;5048580;28;20514;-69
2023/08/19 11:36:54;;;;;;;6.85;2.22;;;;;;;;;;5047691;28;20045;-69
2023/08/19 11:39:19;;;;;;;7.47;2.50;;;;;;;;;;5046136;28;20053;-69
2023/08/19 11:41:47;;;;;;;4.00;2.50;;;;;;;;;;5048149;28;20674;-69
2023/08/19 11:44:13;;;;;;;6.10;2.35;;;;;;;;;;5046188;28;20033;-69
2023/08/19 11:46:38;;;;;;;4.35;2.60;;;;;;;;;;5047377;28;20044;-69
2023/08/19 11:49:08;;;;;;;6.18;2.38;;;;;;;;;;5047481;28;20595;-69
2023/08/19 11:51:36;;;;;;;7.85;2.78;;;;;;;;;;5047765;28;20052;-69
2023/08/19 11:54:05;;;;;;;6.45;2.50;;;;;;;;;;5047338;28;20029;-69
2023/08/19 11:56:51;;;;;;;5.10;2.38;;;;;;;;;;5047112;28;20048;-69
2023/08/19 11:59:17;;;;;;;4.57;2.45;;;;;;;;;;5046055;28;20066;-69
2023/08/19 12:01:47;;;;;;;6.50;2.33;;;;;;;;;;5034081;28;20036;-69
2023/08/19 12:04:17;;;;;;;3.97;2.50;;;;;;;;;;5036588;28;20060;-69
2023/08/19 12:06:44;;;;;;;6.60;2.60;;;;;;;;;;5045967;28;20039;-69
2023/08/19 12:09:10;;;;;;;4.97;2.15;;;;;;;;;;5047330;28;20032;-69
2023/08/19 12:11:36;;;;;;;5.63;2.42;;;;;;;;;;5047297;28;20037;-69
2023/08/19 12:14:02;;;;;;;3.50;2.03;;;;;;;;;;5045880;28;20052;-69
2023/08/19 12:16:28;;;;;;;6.53;2.35;;;;;;;;;;5047322;28;20414;-69
2023/08/19 12:18:53;;;;;;;6.22;2.20;;;;;;;;;;5044792;28;20041;-69
2023/08/19 12:21:18;;;;;;;5.82;2.35;;;;;;;;;;5040690;28;20064;-69
2023/08/19 12:23:44;;;;;;;5.30;2.40;;;;;;;;;;5038819;28;20041;-68
2023/08/19 12:26:09;;;;;;;4.35;2.20;;;;;;;;;;5044320;28;20048;-69
2023/08/19 12:28:35;;;;;;;5.70;2.30;;;;;;;;;;5046731;28;20114;-69
2023/08/19 12:31:00;;;;;;;5.63;2.00;;;;;;;;;;5047680;28;20044;-68
2023/08/19 12:33:25;;;;;;;4.18;2.22;;;;;;;;;;5054858;28;20446;-69
2023/08/19 12:35:51;;;;;;;4.68;2.72;;;;;;;;;;5050453;28;20036;-69
2023/08/19 12:38:19;;;;;;;3.42;2.20;;;;;;;;;;5046516;28;20065;-69
2023/08/19 12:40:46;;;;;;;4.38;2.40;;;;;;;;;;5046372;28;20047;-69
2023/08/19 12:43:13;;;;;;;4.20;2.03;;;;;;;;;;5046458;28;20075;-69
2023/08/19 12:45:39;;;;;;;4.22;2.35;;;;;;;;;;5045396;28;20576;-69
2023/08/19 12:48:05;;;;;;;4.88;2.20;;;;;;;;;;5043271;28;20425;-69
2023/08/19 12:50:31;;;;;;;4.28;2.38;;;;;;;;;;5046093;28;20063;-68
2023/08/19 12:52:56;;;;;;;3.67;2.20;;;;;;;;;;5046732;28;20033;-69
2023/08/19 12:55:24;;;;;;;6.20;2.47;;;;;;;;;;5045642;28;20455;-69
2023/08/19 12:57:56;;;;;;;4.60;2.35;;;;;;;;;;5043581;28;20037;-69
2023/08/19 13:00:27;;;;;;;4.13;2.38;;;;;;;;;;5044539;28;20033;-69
2023/08/19 13:02:53;;;;;;;4.38;2.70;;;;;;;;;;5057691;28;20028;-69
2023/08/19 13:05:18;;;;;;;3.22;2.00;;;;;;;;;;5044289;28;20036;-69
2023/08/19 13:07:45;;;;;;;4.57;2.47;;;;;;;;;;5045006;28;20037;-69
2023/08/19 13:10:14;;;;;;;4.35;2.10;;;;;;;;;;5044456;28;20151;-68
2023/08/19 13:12:40;;;;;;;4.32;2.33;;;;;;;;;;5045860;28;20082;-69
2023/08/19 13:15:06;;;;;;;5.97;2.50;;;;;;;;;;5046824;28;20037;-69
2023/08/19 13:17:31;;;;;;;3.60;2.28;;;;;;;;;;5032513;28;20445;-69
2023/08/19 13:19:57;;;;;;;3.38;2.20;;;;;;;;;;5044460;28;20474;-69
2023/08/19 13:22:23;;;;;;;3.35;2.30;;;;;;;;;;5045436;28;20518;-69
2023/08/19 13:24:52;;;;;;;4.97;2.40;;;;;;;;;;5045556;28;20524;-69
2023/08/19 13:27:18;;;;;;;3.10;2.10;;;;;;;;;;5043387;28;20064;-69
2023/08/19 13:29:44;;;;;;;3.65;2.00;;;;;;;;;;5042870;28;20064;-69
2023/08/19 13:32:10;;;;;;;7.25;2.65;;;;;;;;;;5032204;28;20116;-69
2023/08/19 13:34:35;;;;;;;2.92;2.05;;;;;;;;;;5045388;28;21020;-69
2023/08/19 13:37:01;;;;;;;3.75;2.10;;;;;;;;;;5043395;28;20112;-69
2023/08/19 13:39:30;;;;;;;4.75;2.67;;;;;;;;;;5045035;28;20062;-69
2023/08/19 13:41:56;;;;;;;5.25;2.20;;;;;;;;;;5043991;28;20039;-69
2023/08/19 13:44:25;;;;;;;2.85;2.20;;;;;;;;;;5045234;28;20024;-69
2023/08/19 13:46:54;;;;;;;5.35;2.15;;;;;;;;;;5020193;28;20103;-69
2023/08/19 13:49:20;;;;;;;4.28;2.10;;;;;;;;;;5044671;28;20084;-69
2023/08/19 13:51:49;;;;;;;3.67;2.00;;;;;;;;;;5047246;28;20057;-69
2023/08/19 13:54:15;;;;;;;5.43;2.38;;;;;;;;;;5048835;28;20067;-69
2023/08/19 13:56:45;;;;;;;3.10;2.40;;;;;;;;;;5049648;28;20074;-69
2023/08/19 13:59:10;;;;;;;3.67;2.63;;;;;;;;;;5055114;28;20040;-69
2023/08/19 14:01:37;;;;;;;5.50;2.40;;;;;;;;;;5056522;28;20033;-69
2023/08/19 14:04:02;;;;;;;6.15;2.13;;;;;;;;;;5038977;28;20569;-69
2023/08/19 14:06:28;;;;;;;5.05;2.42;;;;;;;;;;5045149;28;20041;-69
2023/08/19 14:08:54;;;;;;;3.95;2.15;;;;;;;;;;5049090;28;20086;-69
2023/08/19 14:11:19;;;;;;;4.22;2.00;;;;;;;;;;5047456;28;20059;-69
2023/08/19 14:13:44;;;;;;;3.70;2.38;;;;;;;;;;5047665;28;20124;-69
2023/08/19 14:16:10;;;;;;;6.10;2.80;;;;;;;;;;5048310;28;20399;-69
2023/08/19 14:18:35;;;;;;;7.28;2.67;;;;;;;;;;5048764;28;20045;-69
2023/08/19 14:21:01;;;;;;;3.58;2.25;;;;;;;;;;5050634;28;20067;-69
2023/08/19 14:23:26;;;;;;;2.83;1.98;;;;;;;;;;5047681;28;20024;-69
2023/08/19 14:25:51;;;;;;;2.65;2.40;;;;;;;;;;5029637;28;20558;-69
2023/08/19 14:28:17;;;;;;;3.30;1.80;;;;;;;;;;5028914;28;20565;-69
2023/08/19 14:30:43;;;;;;;2.72;1.80;;;;;;;;;;5028738;28;20641;-69
2023/08/19 14:33:09;;;;;;;7.13;2.30;;;;;;;;;;5028303;28;20037;-69
2023/08/19 14:35:34;;;;;;;4.20;2.08;;;;;;;;;;5026912;28;20033;-69
2023/08/19 14:38:01;;;;;;;4.15;1.90;;;;;;;;;;5028336;28;20685;-69